createdAt,value
2019-04-27T00:02:07.976Z,42.85
2019-04-27T00:04:59.741Z,35.03
2019-04-27T00:07:39.129Z,30.57
2019-04-27T00:10:20.530Z,37.78
2019-04-27T00:12:57.332Z,37.10
2019-04-27T00:15:50.795Z,43.08
2019-04-27T00:18:43.361Z,32.58
2019-04-27T00:21:43.033Z,32.55
2019-04-27T00:24:19.652Z,55.85
2019-04-27T00:26:54.062Z,49.90
2019-04-27T00:29:27.204Z,42.43
2019-04-27T00:32:00.110Z,63.83
2019-04-27T00:34:33.999Z,50.33
2019-04-27T00:37:36.822Z,49.70
2019-04-27T00:40:15.881Z,59.40
2019-04-27T00:42:48.778Z,61.00
2019-04-27T00:45:23.407Z,57.20
2019-04-27T00:47:59.726Z,70.20
2019-04-27T00:50:31.184Z,52.00
2019-04-27T00:53:04.088Z,49.53
2019-04-27T00:55:39.234Z,62.65
2019-04-27T00:58:23.598Z,50.90
2019-04-27T01:01:24.258Z,58.55
2019-04-27T01:04:07.402Z,41.33
2019-04-27T01:06:40.336Z,51.63
2019-04-27T01:09:14.789Z,46.65
2019-04-27T01:11:47.639Z,51.50
2019-04-27T01:14:20.644Z,65.67
2019-04-27T01:16:53.467Z,47.33
2019-04-27T01:19:26.415Z,43.10
2019-04-27T01:21:59.324Z,39.90
2019-04-27T01:24:32.179Z,40.67
2019-04-27T01:27:26.522Z,48.48
2019-04-27T01:30:00.902Z,41.80
2019-04-27T01:32:35.412Z,38.35
2019-04-27T01:35:08.755Z,41.15
2019-04-27T01:37:42.662Z,54.30
2019-04-27T01:40:16.543Z,39.48
2019-04-27T01:42:49.393Z,38.05
2019-04-27T01:45:22.276Z,44.20
2019-04-27T01:47:55.140Z,46.90
2019-04-27T01:50:29.020Z,39.60
2019-04-27T01:53:02.255Z,47.48
2019-04-27T01:55:35.209Z,40.67
2019-04-27T01:58:10.690Z,41.70
2019-04-27T02:01:01.644Z,43.58
2019-04-27T02:03:42.950Z,41.15
2019-04-27T02:06:15.953Z,42.27
2019-04-27T02:08:49.336Z,34.00
2019-04-27T02:11:22.333Z,38.15
2019-04-27T02:13:55.164Z,36.75
2019-04-27T02:16:29.009Z,30.88
2019-04-27T02:19:02.711Z,36.05
2019-04-27T02:21:35.650Z,39.18
2019-04-27T02:24:11.276Z,28.30
2019-04-27T02:26:44.425Z,34.18
2019-04-27T02:29:39.079Z,33.40
2019-04-27T02:32:24.731Z,33.42
2019-04-27T02:35:00.348Z,35.38
2019-04-27T02:37:34.458Z,40.12
2019-04-27T02:40:39.773Z,35.05
2019-04-27T02:43:15.167Z,36.93
2019-04-27T02:45:50.324Z,35.25
2019-04-27T02:48:23.615Z,36.08
2019-04-27T02:51:00.052Z,30.80
2019-04-27T02:53:50.565Z,25.43
2019-04-27T02:56:23.493Z,31.35
2019-04-27T02:58:56.291Z,25.27
2019-04-27T03:01:31.906Z,33.30
2019-04-27T03:04:04.865Z,28.62
2019-04-27T03:06:39.768Z,29.18
2019-04-27T03:09:12.350Z,28.92
2019-04-27T03:11:45.217Z,24.18
2019-04-27T03:14:36.578Z,29.87
2019-04-27T03:17:36.424Z,21.65
2019-04-27T03:20:15.347Z,19.73
2019-04-27T03:22:51.423Z,21.60
2019-04-27T03:25:40.354Z,21.93
2019-04-27T03:28:15.261Z,23.35
2019-04-27T03:30:51.588Z,23.47
2019-04-27T03:33:23.107Z,20.20
2019-04-27T03:35:56.132Z,21.93
2019-04-27T03:38:30.131Z,21.62
2019-04-27T03:41:03.360Z,19.23
2019-04-27T03:43:36.214Z,23.85
2019-04-27T03:46:10.349Z,17.77
2019-04-27T03:48:43.495Z,21.77
2019-04-27T03:51:25.345Z,22.50
2019-04-27T03:54:21.490Z,21.33
2019-04-27T03:56:55.374Z,20.60
2019-04-27T03:59:33.893Z,24.75
2019-04-27T04:02:09.626Z,19.12
2019-04-27T04:04:41.401Z,22.27
2019-04-27T04:07:19.719Z,21.42
2019-04-27T04:09:53.023Z,21.75
2019-04-27T04:12:43.738Z,20.60
2019-04-27T04:15:25.470Z,17.10
2019-04-27T04:17:59.499Z,17.50
2019-04-27T04:20:33.019Z,16.57
2019-04-27T04:23:05.903Z,17.37
2019-04-27T04:25:40.874Z,16.05
2019-04-27T04:28:13.484Z,16.82
2019-04-27T04:30:46.530Z,18.55
2019-04-27T04:33:20.911Z,16.32
2019-04-27T04:35:53.784Z,15.05
2019-04-27T04:38:26.593Z,18.92
2019-04-27T04:41:03.706Z,19.30
2019-04-27T04:43:46.398Z,20.02
2019-04-27T04:46:36.758Z,13.58
2019-04-27T04:49:09.700Z,16.42
2019-04-27T04:51:42.648Z,21.12
2019-04-27T04:54:15.622Z,15.43
2019-04-27T04:56:49.393Z,16.62
2019-04-27T04:59:22.445Z,16.95
2019-04-27T05:01:55.325Z,23.50
2019-04-27T05:04:29.163Z,18.37
2019-04-27T05:07:02.141Z,15.63
2019-04-27T05:09:35.076Z,16.37
2019-04-27T05:12:08.920Z,16.45
2019-04-27T05:14:41.913Z,13.28
2019-04-27T05:17:14.797Z,14.55
2019-04-27T05:19:49.090Z,11.70
2019-04-27T05:22:22.268Z,12.88
2019-04-27T05:25:01.238Z,15.88
2019-04-27T05:27:34.357Z,16.82
2019-04-27T05:30:09.252Z,14.15
2019-04-27T05:32:42.261Z,11.15
2019-04-27T05:35:16.102Z,14.70
2019-04-27T05:37:49.247Z,10.68
2019-04-27T05:40:22.179Z,10.53
2019-04-27T05:42:56.192Z,8.60
2019-04-27T05:46:45.836Z,13.70
2019-04-27T05:49:23.286Z,12.60
2019-04-27T05:51:56.126Z,10.55
2019-04-27T05:54:29.466Z,10.48
2019-04-27T05:57:02.402Z,12.15
2019-04-27T05:59:35.200Z,10.15
2019-04-27T06:02:09.365Z,10.28
2019-04-27T06:04:42.447Z,14.93
2019-04-27T06:07:15.319Z,10.18
2019-04-27T06:09:49.262Z,9.50
2019-04-27T06:12:22.419Z,12.70
2019-04-27T06:14:55.324Z,15.63
2019-04-27T06:17:29.893Z,13.32
2019-04-27T06:20:02.713Z,13.55
2019-04-27T06:22:36.628Z,14.05
2019-04-27T06:25:11.696Z,11.05
2019-04-27T06:27:44.741Z,10.95
2019-04-27T06:30:19.290Z,12.60
2019-04-27T06:32:52.376Z,12.37
2019-04-27T06:35:25.267Z,12.82
2019-04-27T06:37:58.594Z,12.78
2019-04-27T06:40:31.614Z,8.65
2019-04-27T06:43:04.665Z,15.10
2019-04-27T06:45:38.755Z,14.10
2019-04-27T06:48:11.942Z,12.82
2019-04-27T06:50:45.186Z,11.83
2019-04-27T06:53:19.183Z,10.85
2019-04-27T06:55:52.463Z,17.00
2019-04-27T06:58:25.339Z,11.70
2019-04-27T07:00:59.562Z,12.65
2019-04-27T07:03:32.607Z,9.83
2019-04-27T07:06:05.746Z,8.23
2019-04-27T07:08:40.063Z,14.53
2019-04-27T07:11:13.213Z,12.40
2019-04-27T07:13:46.270Z,16.60
2019-04-27T07:16:19.637Z,11.03
2019-04-27T07:18:52.689Z,11.05
2019-04-27T07:21:25.680Z,11.18
2019-04-27T07:23:59.479Z,12.47
2019-04-27T07:26:32.731Z,12.30
2019-04-27T07:29:05.693Z,14.15
2019-04-27T07:31:40.231Z,13.20
2019-04-27T07:34:13.343Z,11.70
2019-04-27T07:36:46.661Z,19.32
2019-04-27T07:39:19.864Z,17.02
2019-04-27T07:41:52.774Z,8.48
2019-04-27T07:44:44.483Z,13.43
2019-04-27T07:47:22.606Z,11.75
2019-04-27T07:49:55.574Z,11.60
2019-04-27T07:52:28.746Z,12.47
2019-04-27T07:55:02.022Z,15.72
2019-04-27T07:57:35.042Z,12.00
2019-04-27T08:00:09.487Z,11.40
2019-04-27T08:02:42.525Z,12.85
2019-04-27T08:05:15.856Z,13.28
2019-04-27T08:07:49.207Z,14.58
2019-04-27T08:10:23.045Z,16.55
2019-04-27T08:12:55.928Z,16.42
2019-04-27T08:15:29.127Z,16.85
2019-04-27T08:18:02.204Z,18.80
2019-04-27T08:20:36.098Z,21.87
2019-04-27T08:23:09.629Z,19.67
2019-04-27T08:25:42.704Z,17.23
2019-04-27T08:28:34.636Z,17.60
2019-04-27T08:31:21.212Z,12.85
2019-04-27T08:33:54.173Z,14.58
2019-04-27T08:36:28.794Z,10.68
2019-04-27T08:39:01.864Z,15.25
2019-04-27T08:41:36.347Z,13.25
2019-04-27T08:44:11.065Z,12.63
2019-04-27T08:46:44.134Z,10.95
2019-04-27T08:49:18.507Z,16.75
2019-04-27T08:51:59.168Z,15.83
2019-04-27T08:54:26.196Z,14.33
2019-04-27T08:56:59.635Z,16.32
2019-04-27T08:59:33.833Z,13.08
2019-04-27T09:02:08.628Z,17.62
2019-04-27T09:04:41.595Z,12.80
2019-04-27T09:07:39.769Z,13.93
2019-04-27T09:10:35.006Z,12.33
2019-04-27T09:13:23.253Z,17.37
2019-04-27T09:16:15.094Z,19.17
2019-04-27T09:18:49.837Z,26.70
2019-04-27T09:21:23.092Z,13.00
2019-04-27T09:23:56.042Z,15.03
2019-04-27T09:26:29.175Z,18.40
2019-04-27T09:29:02.219Z,14.60
2019-04-27T09:31:35.136Z,15.88
2019-04-27T09:34:08.171Z,23.15
2019-04-27T09:36:41.204Z,17.07
2019-04-27T09:39:16.315Z,15.95
2019-04-27T09:41:49.521Z,23.18
2019-04-27T09:44:22.573Z,20.75
2019-04-27T09:46:56.069Z,19.42
2019-04-27T09:49:29.243Z,18.00
2019-04-27T09:52:02.312Z,16.82
2019-04-27T09:54:36.553Z,15.28
2019-04-27T09:57:09.577Z,26.52
2019-04-27T09:59:42.484Z,14.25
2019-04-27T10:02:16.531Z,20.32
2019-04-27T10:04:49.712Z,18.17
2019-04-27T10:07:22.748Z,17.48
2019-04-27T10:09:56.036Z,15.45
2019-04-27T10:12:29.107Z,17.40
2019-04-27T10:15:01.973Z,24.55
2019-04-27T10:17:36.734Z,23.45
2019-04-27T10:20:10.231Z,15.90
2019-04-27T10:22:43.855Z,12.37
2019-04-27T10:25:25.117Z,15.25
2019-04-27T10:27:59.221Z,18.95
2019-04-27T10:30:32.230Z,18.25
2019-04-27T10:33:05.968Z,12.25
2019-04-27T10:35:39.876Z,18.12
2019-04-27T10:38:12.968Z,12.68
2019-04-27T10:40:46.282Z,14.83
2019-04-27T10:43:19.220Z,18.75
2019-04-27T10:45:52.050Z,10.15
2019-04-27T10:48:26.519Z,11.48
2019-04-27T10:50:59.675Z,20.27
2019-04-27T10:53:32.563Z,18.32
2019-04-27T10:56:05.474Z,14.65
2019-04-27T10:58:38.382Z,14.18
2019-04-27T11:01:11.409Z,8.63
2019-04-27T11:04:06.913Z,14.98
2019-04-27T11:06:42.230Z,7.45
2019-04-27T11:09:16.351Z,14.53
2019-04-27T11:11:49.451Z,17.17
2019-04-27T11:14:22.333Z,15.98
2019-04-27T11:16:57.286Z,10.53
2019-04-27T11:19:30.976Z,7.97
2019-04-27T11:22:07.054Z,8.83
2019-04-27T11:24:38.473Z,9.55
2019-04-27T11:27:11.478Z,12.10
2019-04-27T11:29:46.072Z,9.73
2019-04-27T11:32:19.239Z,15.60
2019-04-27T11:35:26.083Z,10.93
2019-04-27T11:37:59.719Z,10.03
2019-04-27T11:40:33.855Z,12.18
2019-04-27T11:43:07.236Z,8.60
2019-04-27T11:45:40.196Z,11.88
2019-04-27T11:48:13.242Z,9.60
2019-04-27T11:50:46.097Z,9.03
2019-04-27T11:53:22.623Z,8.63
2019-04-27T11:55:53.620Z,8.15
2019-04-27T11:58:26.625Z,6.85
2019-04-27T12:00:59.456Z,10.98
2019-04-27T12:03:32.468Z,9.85
2019-04-27T12:06:05.665Z,15.78
2019-04-27T12:08:38.665Z,9.35
2019-04-27T12:11:11.621Z,12.58
2019-04-27T12:13:46.124Z,13.32
2019-04-27T12:16:19.171Z,9.23
2019-04-27T12:18:52.076Z,8.55
2019-04-27T12:21:24.976Z,10.75
2019-04-27T12:23:57.955Z,9.48
2019-04-27T12:26:47.486Z,6.75
2019-04-27T12:29:23.781Z,12.33
2019-04-27T12:31:56.600Z,9.00
2019-04-27T12:34:29.415Z,7.72
2019-04-27T12:37:02.512Z,6.87
2019-04-27T12:39:35.340Z,6.60
2019-04-27T12:42:08.330Z,3.50
2019-04-27T12:44:42.617Z,7.60
2019-04-27T12:47:16.369Z,6.12
2019-04-27T12:49:49.287Z,7.20
2019-04-27T12:52:23.266Z,6.70
2019-04-27T12:55:16.780Z,4.70
2019-04-27T12:58:10.196Z,5.65
2019-04-27T13:00:45.588Z,5.22
2019-04-27T13:03:18.493Z,7.17
2019-04-27T13:05:51.319Z,25.10
2019-04-27T13:08:26.054Z,10.05
2019-04-27T13:10:58.999Z,7.08
2019-04-27T13:13:31.904Z,5.65
2019-04-27T13:16:07.651Z,6.33
2019-04-27T13:18:40.621Z,6.70
2019-04-27T13:21:13.597Z,4.42
2019-04-27T13:23:46.477Z,4.60
2019-04-27T13:26:19.298Z,6.80
2019-04-27T13:28:53.114Z,5.83
2019-04-27T13:31:26.122Z,5.65
2019-04-27T13:33:59.264Z,5.92
2019-04-27T13:36:33.139Z,7.78
2019-04-27T13:39:08.650Z,7.65
2019-04-27T13:41:43.248Z,4.95
2019-04-27T13:44:17.369Z,7.28
2019-04-27T13:47:08.027Z,9.48
2019-04-27T13:49:48.805Z,5.67
2019-04-27T13:52:26.364Z,4.25
2019-04-27T13:55:00.193Z,4.45
2019-04-27T13:57:33.043Z,4.70
2019-04-27T14:00:06.565Z,4.47
2019-04-27T14:02:39.880Z,6.15
2019-04-27T14:05:13.085Z,6.92
2019-04-27T14:07:46.075Z,6.83
2019-04-27T14:10:20.386Z,5.67
2019-04-27T14:12:53.473Z,7.92
2019-04-27T14:15:28.784Z,5.97
2019-04-27T14:18:01.340Z,11.50
2019-04-27T14:20:34.389Z,5.25
2019-04-27T14:23:16.195Z,6.40
2019-04-27T14:25:49.033Z,8.10
2019-04-27T14:28:21.965Z,7.83
2019-04-27T14:30:54.918Z,7.92
2019-04-27T14:33:28.405Z,10.48
2019-04-27T14:36:01.752Z,16.20
2019-04-27T14:38:34.739Z,7.20
2019-04-27T14:41:09.075Z,11.35
2019-04-27T14:43:42.284Z,4.30
2019-04-27T14:46:15.202Z,9.35
2019-04-27T14:48:48.482Z,9.98
2019-04-27T14:51:21.306Z,3.85
2019-04-27T14:53:54.199Z,4.12
2019-04-27T14:56:28.220Z,5.33
2019-04-27T14:59:01.240Z,3.92
2019-04-27T15:01:34.173Z,6.17
2019-04-27T15:04:07.158Z,4.75
2019-04-27T15:06:40.154Z,4.50
2019-04-27T15:09:17.380Z,4.28
2019-04-27T15:11:49.279Z,3.52
2019-04-27T15:14:23.802Z,5.22
2019-04-27T15:16:56.922Z,11.55
2019-04-27T15:19:35.103Z,5.05
2019-04-27T15:22:12.677Z,5.05
2019-04-27T15:24:47.370Z,5.10
2019-04-27T15:27:21.706Z,2.85
2019-04-27T15:29:55.792Z,17.40
2019-04-27T15:32:56.522Z,5.00
2019-04-27T15:35:40.515Z,7.08
2019-04-27T15:38:15.524Z,8.85
2019-04-27T15:41:16.107Z,4.80
2019-04-27T15:43:49.090Z,3.40
2019-04-27T15:46:22.124Z,5.70
2019-04-27T15:48:55.029Z,3.65
2019-04-27T15:51:28.340Z,6.20
2019-04-27T15:54:02.117Z,5.45
2019-04-27T15:56:35.497Z,4.45
2019-04-27T15:59:09.794Z,3.40
2019-04-27T16:01:42.823Z,4.35
2019-04-27T16:04:15.653Z,3.65
2019-04-27T16:06:50.315Z,5.90
2019-04-27T16:09:25.561Z,11.38
2019-04-27T16:12:09.643Z,7.08
2019-04-27T16:14:36.474Z,7.28
2019-04-27T16:17:11.366Z,5.97
2019-04-27T16:19:46.667Z,2.80
2019-04-27T16:22:18.419Z,3.62
2019-04-27T16:24:53.499Z,3.02
2019-04-27T16:27:31.435Z,3.35
2019-04-27T16:30:09.722Z,3.75
2019-04-27T16:32:35.868Z,3.25
2019-04-27T16:35:13.692Z,7.83
2019-04-27T16:38:08.126Z,7.78
2019-04-27T16:40:41.719Z,3.30
2019-04-27T16:43:14.730Z,7.22
2019-04-27T16:45:48.532Z,11.57
2019-04-27T16:48:21.606Z,19.75
2019-04-27T16:50:55.231Z,8.03
2019-04-27T16:56:15.275Z,8.08
2019-04-27T16:58:50.502Z,12.35
2019-04-27T17:01:23.180Z,6.65
2019-04-27T17:03:56.638Z,3.70
2019-04-27T17:06:29.843Z,12.43
2019-04-27T17:09:06.782Z,9.33
2019-04-27T17:11:43.668Z,3.67
2019-04-27T17:12:41.339Z,7.15
2019-04-27T17:14:22.437Z,6.25
2019-04-27T17:17:12.065Z,6.17
2019-04-27T17:19:52.102Z,4.78
2019-04-27T17:22:25.034Z,4.30
2019-04-27T17:24:59.005Z,5.95
2019-04-27T17:27:38.417Z,6.87
2019-04-27T17:30:11.521Z,16.20
2019-04-27T17:32:53.803Z,9.50
2019-04-27T17:35:28.461Z,11.22
2019-04-27T17:38:03.669Z,7.25
2019-04-27T17:40:36.042Z,3.05
2019-04-27T17:43:10.518Z,4.72
2019-04-27T17:45:43.610Z,7.42
2019-04-27T17:48:18.336Z,6.03
2019-04-27T17:50:51.403Z,22.62
2019-04-27T17:53:25.202Z,13.20
2019-04-27T17:56:02.948Z,35.98
2019-04-27T17:58:35.324Z,33.67
2019-04-27T18:01:14.016Z,87.47
2019-04-27T18:03:45.068Z,60.48
2019-04-27T18:06:20.519Z,40.28
2019-04-27T18:08:55.005Z,36.38
2019-04-27T18:11:28.729Z,33.25
2019-04-27T18:14:01.966Z,28.90
2019-04-27T18:16:34.877Z,16.02
2019-04-27T18:19:13.774Z,15.25
2019-04-27T18:22:03.641Z,27.70
2019-04-27T18:24:50.792Z,30.40
2019-04-27T18:27:41.459Z,14.83
2019-04-27T18:30:41.873Z,16.30
2019-04-27T18:33:12.766Z,20.68
2019-04-27T18:35:45.734Z,27.62
2019-04-27T18:38:18.705Z,25.40
2019-04-27T18:40:51.630Z,29.45
2019-04-27T18:43:24.750Z,26.15
2019-04-27T18:45:58.728Z,24.70
2019-04-27T18:48:58.344Z,28.15
2019-04-27T18:51:57.861Z,43.25
2019-04-27T18:54:33.039Z,32.50
2019-04-27T18:57:05.137Z,32.63
2019-04-27T18:59:38.149Z,25.92
2019-04-27T19:02:11.217Z,28.67
2019-04-27T19:04:44.103Z,30.45
2019-04-27T19:07:17.088Z,26.30
2019-04-27T19:09:49.995Z,29.95
2019-04-27T19:12:22.943Z,25.68
2019-04-27T19:14:55.830Z,24.32
2019-04-27T19:17:28.785Z,24.02
2019-04-27T19:20:01.916Z,20.57
2019-04-27T19:22:35.079Z,32.10
2019-04-27T19:25:10.274Z,35.03
2019-04-27T19:27:59.756Z,19.87
2019-04-27T19:30:36.635Z,21.50
2019-04-27T19:33:09.556Z,24.37
2019-04-27T19:35:42.441Z,35.52
2019-04-27T19:38:15.407Z,28.07
2019-04-27T19:40:48.456Z,34.13
2019-04-27T19:43:21.408Z,33.83
2019-04-27T19:45:54.555Z,40.85
2019-04-27T19:48:28.641Z,38.40
2019-04-27T19:51:02.089Z,36.08
2019-04-27T19:53:35.093Z,35.08
2019-04-27T19:56:07.999Z,42.45
2019-04-27T19:58:45.502Z,37.50
2019-04-27T20:01:35.575Z,34.50
2019-04-27T20:04:23.442Z,33.30
2019-04-27T20:06:56.350Z,32.75
2019-04-27T20:09:42.896Z,23.12
2019-04-27T20:12:15.888Z,31.52
2019-04-27T20:14:57.709Z,25.95
2019-04-27T20:17:32.409Z,28.95
2019-04-27T20:20:06.776Z,32.00
2019-04-27T20:22:39.836Z,27.32
2019-04-27T20:25:16.351Z,29.82
2019-04-27T20:27:51.693Z,48.75
2019-04-27T20:30:23.933Z,55.55
2019-04-27T20:32:56.859Z,30.20
2019-04-27T20:35:29.931Z,31.10
2019-04-27T20:38:02.823Z,39.55
2019-04-27T20:40:35.950Z,24.67
2019-04-27T20:43:09.029Z,13.68
2019-04-27T20:45:42.066Z,19.17
2019-04-27T20:48:15.083Z,25.88
2019-04-27T20:50:48.028Z,31.82
2019-04-27T20:53:23.977Z,31.75
2019-04-27T20:55:56.928Z,33.23
2019-04-27T20:58:31.137Z,37.33
2019-04-27T21:01:04.372Z,35.17
2019-04-27T21:03:42.206Z,30.32
2019-04-27T21:06:29.636Z,32.00
2019-04-27T21:09:03.051Z,30.95
2019-04-27T21:11:48.010Z,31.62
2019-04-27T21:14:21.780Z,21.52
2019-04-27T21:16:54.928Z,17.00
2019-04-27T21:19:27.835Z,17.20
2019-04-27T21:22:01.333Z,14.43
2019-04-27T21:24:34.364Z,18.60
2019-04-27T21:27:07.285Z,21.35
2019-04-27T21:29:41.972Z,14.18
2019-04-27T21:32:14.819Z,13.18
2019-04-27T21:34:47.823Z,18.52
2019-04-27T21:37:20.720Z,18.90
2019-04-27T21:40:15.596Z,31.70
2019-04-27T21:42:50.945Z,25.62
2019-04-27T21:45:24.764Z,25.35
2019-04-27T21:47:57.613Z,24.30
2019-04-27T21:50:31.386Z,28.60
2019-04-27T21:53:11.035Z,25.00
2019-04-27T21:55:43.962Z,27.58
2019-04-27T21:58:28.312Z,29.87
2019-04-27T22:01:14.651Z,24.27
2019-04-27T22:03:50.651Z,25.77
2019-04-27T22:06:23.462Z,29.75
2019-04-27T22:08:57.346Z,26.48
2019-04-27T22:11:31.944Z,29.20
2019-04-27T22:14:06.140Z,29.57
2019-04-27T22:16:39.137Z,34.40
2019-04-27T22:19:12.198Z,34.65
2019-04-27T22:21:45.088Z,29.00
2019-04-27T22:24:39.211Z,24.07
2019-04-27T22:27:12.431Z,25.08
2019-04-27T22:29:45.391Z,25.77
2019-04-27T22:32:18.205Z,27.35
2019-04-27T22:34:51.069Z,38.08
2019-04-27T22:37:23.966Z,43.70
2019-04-27T22:40:24.953Z,44.35
2019-04-27T22:43:19.851Z,48.52
2019-04-27T22:45:52.852Z,37.45
2019-04-27T22:48:25.686Z,35.20
2019-04-27T22:50:58.563Z,40.65
2019-04-27T22:53:32.455Z,36.90
2019-04-27T22:56:21.936Z,34.20
2019-04-27T22:59:11.457Z,31.27
2019-04-27T23:02:11.404Z,43.85
2019-04-27T23:04:48.754Z,53.45
2019-04-27T23:07:21.714Z,88.97
2019-04-27T23:09:54.732Z,94.22
2019-04-27T23:12:27.682Z,89.37
2019-04-27T23:15:00.576Z,107.60
2019-04-27T23:17:52.526Z,91.45
2019-04-27T23:20:25.461Z,83.40
2019-04-27T23:22:58.386Z,86.40
2019-04-27T23:25:31.420Z,64.75
2019-04-27T23:28:04.328Z,48.08
2019-04-27T23:31:02.551Z,53.45
2019-04-27T23:33:36.571Z,47.85
2019-04-27T23:36:11.402Z,42.67
2019-04-27T23:38:44.505Z,47.98
2019-04-27T23:41:17.398Z,43.95
2019-04-27T23:43:50.374Z,48.78
2019-04-27T23:46:23.229Z,50.63
2019-04-27T23:48:56.085Z,55.78
2019-04-27T23:51:41.276Z,61.20
2019-04-27T23:54:14.129Z,48.33
2019-04-27T23:56:47.013Z,56.80
2019-04-27T23:59:25.165Z,45.20
